No particular awareness of the weather is required.    There are no Weather-warnings


Meteo18 Weather Cam more information Meteo18 Weather Cam


Thunder radar more information blitzortung!


Rain radar more information rain snow radar


Visit our other weather sites:

Template documentation
and downloads

And another site



Weather Underground History page Text

Daily Summary for July 15, 2017 Units:  English    Metric   Both
« Previous Day
Next Day »
Daily Weekly Monthly Yearly Custom
  High: Low: Average:
Temperature: TemperatureC °F 12.2 °F 19.4 °F
Dew Point: DewpointC °F 9.8 °F 11.2 °F
Humidity: Humidity % 42 % 61 %
Wind Speed: WindSpeedKMH mph 0.0 mph 4.3 mph
Wind Gust: WindSpeedGustKMH mph - -
Wind:- - SSW
Pressure: PressurehPa in 1023.2 in -
Precipitation: 0.0 in    
Historical Graphs
 
 
Tabular Data for July 15, 2017
Time Temperature Dew Point Pressure Wind Wind Speed Wind Gust Humidity Rainfall Rate (Hourly)
TemperatureC °F DewpointC °F PressurehPa in Calm     Humidity % HourlyPrecipMM in
00:02 17.3 °F 12.2 °F 1023.2 in WNW 1.6 mph 6.4 mph 72 % 0.0 in
00:12 17.4 °F 12.3 °F 1023.2 in NW 4.8 mph 14.5 mph 72 % 0.0 in
00:17 17.4 °F 12.3 °F 1023.2 in WNW 6.4 mph 14.5 mph 72 % 0.0 in
00:22 17.4 °F 12.3 °F 1023.2 in NW 6.4 mph 14.5 mph 72 % 0.0 in
00:27 17.4 °F 12.1 °F 1023.6 in NW 1.6 mph 14.5 mph 71 % 0.0 in
00:37 17.4 °F 12.1 °F 1023.6 in NNW 9.7 mph 12.9 mph 71 % 0.0 in
00:42 17.3 °F 12.2 °F 1023.6 in NNW 3.2 mph 14.5 mph 72 % 0.0 in
00:47 17.2 °F 12.1 °F 1023.6 in North 4.8 mph 14.5 mph 72 % 0.0 in
00:52 17.1 °F 12.0 °F 1023.6 in NNW 4.8 mph 14.5 mph 72 % 0.0 in
00:57 16.9 °F 12.0 °F 1023.6 in North 11.3 mph 12.9 mph 73 % 0.0 in
01:02 16.8 °F 11.9 °F 1023.6 in NNW 9.7 mph 12.9 mph 73 % 0.0 in
01:12 16.5 °F 11.6 °F 1023.6 in NNW 6.4 mph 11.3 mph 73 % 0.0 in
01:17 16.3 °F 11.5 °F 1023.6 in North 3.2 mph 11.3 mph 73 % 0.0 in
01:22 16.2 °F 11.4 °F 1023.6 in NW 4.8 mph 11.3 mph 73 % 0.0 in
01:27 16.1 °F 11.5 °F 1023.6 in NW 3.2 mph 9.7 mph 74 % 0.0 in
01:32 16.0 °F 11.4 °F 1023.6 in NNW 1.6 mph 9.7 mph 74 % 0.0 in
01:37 15.9 °F 11.3 °F 1023.6 in NNW 3.2 mph 6.4 mph 74 % 0.0 in
01:42 15.9 °F 11.1 °F 1023.6 in North 4.8 mph 8.0 mph 73 % 0.0 in
01:47 15.9 °F 11.1 °F 1023.6 in NNW 4.8 mph 8.0 mph 73 % 0.0 in
01:52 15.8 °F 11.0 °F 1023.6 in North 6.4 mph 9.7 mph 73 % 0.0 in
01:57 15.7 °F 10.9 °F 1023.6 in North 6.4 mph 9.7 mph 73 % 0.0 in
02:02 15.8 °F 11.0 °F 1023.9 in NNW 6.4 mph 11.3 mph 73 % 0.0 in
02:07 15.8 °F 10.8 °F 1023.9 in NNW 9.7 mph 11.3 mph 72 % 0.0 in
02:12 15.7 °F 10.7 °F 1023.9 in NNW 3.2 mph 11.3 mph 72 % 0.0 in
02:17 15.7 °F 10.7 °F 1023.9 in NW 3.2 mph 14.5 mph 72 % 0.0 in
02:22 15.6 °F 10.6 °F 1023.9 in NW 3.2 mph 14.5 mph 72 % 0.0 in
02:32 15.4 °F 10.6 °F 1023.9 in North 6.4 mph 11.3 mph 73 % 0.0 in
02:42 15.3 °F 10.5 °F 1023.6 in NNE 4.8 mph 9.7 mph 73 % 0.0 in
02:47 15.3 °F 10.5 °F 1023.9 in NW 3.2 mph 9.7 mph 73 % 0.0 in
02:57 15.1 °F 10.5 °F 1023.9 in NW 4.8 mph 9.7 mph 74 % 0.0 in
03:02 14.9 °F 10.3 °F 1023.9 in NNW 8.0 mph 8.0 mph 74 % 0.0 in
03:07 14.9 °F 10.5 °F 1023.6 in NW 8.0 mph 8.0 mph 75 % 0.0 in
03:12 14.8 °F 10.4 °F 1023.6 in North 1.6 mph 9.7 mph 75 % 0.0 in
03:17 14.7 °F 10.3 °F 1023.9 in NNE 6.4 mph 9.7 mph 75 % 0.0 in
03:22 14.6 °F 10.2 °F 1023.9 in NNW 3.2 mph 9.7 mph 75 % 0.0 in
03:27 14.5 °F 10.3 °F 1023.9 in NNW 1.6 mph 9.7 mph 76 % 0.0 in
03:32 14.4 °F 10.2 °F 1023.6 in NNW 1.6 mph 8.0 mph 76 % 0.0 in
03:37 14.3 °F 10.1 °F 1023.9 in NW 3.2 mph 8.0 mph 76 % 0.0 in
03:42 14.2 °F 10.2 °F 1023.9 in WNW 3.2 mph 8.0 mph 77 % 0.0 in
03:47 14.1 °F 10.1 °F 1023.6 in North 1.6 mph 8.0 mph 77 % 0.0 in
03:52 13.9 °F 10.1 °F 1023.6 in NNW 1.6 mph 6.4 mph 78 % 0.0 in
03:57 13.8 °F 10.0 °F 1023.6 in NNW 3.2 mph 6.4 mph 78 % 0.0 in
04:02 13.7 °F 10.1 °F 1023.6 in Calm   4.8 mph 79 % 0.0 in
04:07 13.6 °F 10.0 °F 1023.6 in Calm   4.8 mph 79 % 0.0 in
04:12 13.6 °F 10.2 °F 1023.6 in Calm   3.2 mph 80 % 0.0 in
04:17 13.4 °F 10.0 °F 1023.6 in NW 1.6 mph 3.2 mph 80 % 0.0 in
04:22 13.3 °F 9.9 °F 1023.6 in NW 1.6 mph 3.2 mph 80 % 0.0 in
04:27 13.2 °F 10.0 °F 1023.6 in Calm   3.2 mph 81 % 0.0 in
04:32 13.1 °F 9.9 °F 1023.6 in NNW 1.6 mph 3.2 mph 81 % 0.0 in
04:42 12.9 °F 9.9 °F 1023.6 in Calm   3.2 mph 82 % 0.0 in
04:47 12.9 °F 9.9 °F 1023.6 in Calm   3.2 mph 82 % 0.0 in
04:52 12.9 °F 9.9 °F 1023.6 in Calm   3.2 mph 82 % 0.0 in
04:57 12.9 °F 9.9 °F 1023.6 in Calm   1.6 mph 82 % 0.0 in
05:02 12.8 °F 9.8 °F 1023.6 in Calm   1.6 mph 82 % 0.0 in
05:12 12.8 °F 9.8 °F 1023.6 in Calm   1.6 mph 82 % 0.0 in
05:17 12.8 °F 10.0 °F 1023.9 in Calm   1.6 mph 83 % 0.0 in
05:22 12.7 °F 9.9 °F 1023.6 in Calm   1.6 mph 83 % 0.0 in
05:27 12.8 °F 10.0 °F 1023.9 in Calm   1.6 mph 83 % 0.0 in
05:32 12.8 °F 9.8 °F 1023.9 in Calm   3.2 mph 82 % 0.0 in
05:42 12.7 °F 9.9 °F 1023.9 in Calm   3.2 mph 83 % 0.0 in
05:47 12.6 °F 9.8 °F 1024.3 in North 1.6 mph 1.6 mph 83 % 0.0 in
05:52 12.6 °F 10.0 °F 1024.3 in North 3.2 mph 3.2 mph 84 % 0.0 in
05:57 12.6 °F 10.0 °F 1024.3 in Calm   4.8 mph 84 % 0.0 in
06:02 12.6 °F 10.0 °F 1024.3 in Calm   4.8 mph 84 % 0.0 in
06:12 12.4 °F 9.8 °F 1024.3 in Calm   4.8 mph 84 % 0.0 in
06:17 12.3 °F 9.9 °F 1024.3 in Calm   3.2 mph 85 % 0.0 in
06:22 12.3 °F 9.9 °F 1024.3 in Calm   3.2 mph 85 % 0.0 in
06:27 12.3 °F 9.9 °F 1024.3 in Calm   1.6 mph 85 % 0.0 in
06:32 12.2 °F 9.8 °F 1024.3 in Calm   1.6 mph 85 % 0.0 in
06:42 12.6 °F 10.1 °F 1024.3 in NNE 3.2 mph 3.2 mph 85 % 0.0 in
06:47 12.8 °F 10.2 °F 1024.3 in NNW 1.6 mph 6.4 mph 84 % 0.0 in
06:52 13.0 °F 10.4 °F 1024.3 in Calm   6.4 mph 84 % 0.0 in
07:02 13.4 °F 10.4 °F 1024.3 in NNW 1.6 mph 4.8 mph 82 % 0.0 in
07:12 13.8 °F 10.6 °F 1024.3 in NNE 1.6 mph 6.4 mph 81 % 0.0 in
07:17 14.0 °F 10.8 °F 1024.3 in North 3.2 mph 4.8 mph 81 % 0.0 in
07:22 14.2 °F 10.8 °F 1024.6 in North 4.8 mph 6.4 mph 80 % 0.0 in
07:27 14.3 °F 10.9 °F 1024.3 in NNW 4.8 mph 8.0 mph 80 % 0.0 in
07:32 14.6 °F 11.0 °F 1024.3 in NNW 3.2 mph 8.0 mph 79 % 0.0 in
07:37 14.7 °F 10.9 °F 1024.6 in NE 4.8 mph 8.0 mph 78 % 0.0 in
07:42 14.8 °F 11.0 °F 1024.6 in North 1.6 mph 9.7 mph 78 % 0.0 in
07:47 14.9 °F 11.1 °F 1024.6 in NNW 6.4 mph 12.9 mph 78 % 0.0 in
07:52 15.1 °F 11.3 °F 1024.6 in North 8.0 mph 12.9 mph 78 % 0.0 in
08:02 15.4 °F 11.0 °F 1024.9 in NNW 8.0 mph 14.5 mph 75 % 0.0 in
08:12 15.5 °F 11.1 °F 1024.9 in NE 6.4 mph 19.3 mph 75 % 0.0 in
08:17 15.6 °F 11.2 °F 1025.3 in North 6.4 mph 19.3 mph 75 % 0.0 in
08:22 15.7 °F 11.3 °F 1025.3 in NW 1.6 mph 19.3 mph 75 % 0.0 in
08:27 15.9 °F 11.3 °F 1025.3 in NNE 4.8 mph 19.3 mph 74 % 0.0 in
08:32 16.1 °F 11.5 °F 1025.3 in NE 9.7 mph 14.5 mph 74 % 0.0 in
08:37 16.2 °F 11.4 °F 1025.3 in NNE 3.2 mph 14.5 mph 73 % 0.0 in
08:42 16.3 °F 11.5 °F 1025.3 in NNW 9.7 mph 19.3 mph 73 % 0.0 in
08:52 16.7 °F 11.6 °F 1025.3 in NNE 6.4 mph 19.3 mph 72 % 0.0 in
08:57 16.8 °F 11.5 °F 1025.3 in North 12.9 mph 14.5 mph 71 % 0.0 in
09:02 16.8 °F 11.7 °F 1025.3 in NNE 11.3 mph 12.9 mph 72 % 0.0 in
09:12 17.2 °F 11.7 °F 1025.3 in NNW 4.8 mph 14.5 mph 70 % 0.0 in
09:17 17.4 °F 11.9 °F 1025.3 in East 1.6 mph 11.3 mph 70 % 0.0 in
09:22 17.5 °F 11.5 °F 1025.3 in East 3.2 mph 11.3 mph 68 % 0.0 in
09:27 17.6 °F 11.6 °F 1025.3 in Calm   11.3 mph 68 % 0.0 in
09:32 17.8 °F 11.8 °F 1025.3 in Calm   9.7 mph 68 % 0.0 in
09:37 18.3 °F 11.8 °F 1025.3 in ENE 1.6 mph 9.7 mph 66 % 0.0 in
09:42 18.3 °F 11.4 °F 1025.3 in ENE 6.4 mph 8.0 mph 64 % 0.0 in
09:47 18.1 °F 11.2 °F 1025.3 in ENE 4.8 mph 8.0 mph 64 % 0.0 in
09:52 18.3 °F 11.1 °F 1025.3 in ENE 1.6 mph 8.0 mph 63 % 0.0 in
10:02 18.6 °F 11.2 °F 1025.3 in NE 8.0 mph 12.9 mph 62 % 0.0 in
10:12 18.6 °F 11.4 °F 1025.3 in West 1.6 mph 12.9 mph 63 % 0.0 in
10:17 18.8 °F 11.4 °F 1025.3 in North 8.0 mph 16.1 mph 62 % 0.0 in
10:22 18.9 °F 11.5 °F 1025.3 in ENE 6.4 mph 16.1 mph 62 % 0.0 in
10:32 19.3 °F 11.1 °F 1025.3 in NNE 4.8 mph 14.5 mph 59 % 0.0 in
10:37 19.2 °F 11.5 °F 1025.3 in NNW 1.6 mph 9.7 mph 61 % 0.0 in
10:42 19.3 °F 10.8 °F 1025.3 in SE 1.6 mph 12.9 mph 58 % 0.0 in
10:47 19.7 °F 10.9 °F 1025.3 in NNW 3.2 mph 12.9 mph 57 % 0.0 in
10:52 19.6 °F 11.1 °F 1025.3 in ENE 6.4 mph 11.3 mph 58 % 0.0 in
10:57 19.4 °F 10.7 °F 1025.3 in North 6.4 mph 9.7 mph 57 % 0.0 in
11:02 19.7 °F 10.9 °F 1025.3 in East 6.4 mph 16.1 mph 57 % 0.0 in
11:07 19.6 °F 11.1 °F 1025.3 in NNW 6.4 mph 16.1 mph 58 % 0.0 in
11:12 19.6 °F 11.1 °F 1025.3 in Calm   16.1 mph 58 % 0.0 in
11:17 19.9 °F 11.4 °F 1025.3 in North 1.6 mph 12.9 mph 58 % 0.0 in
11:22 20.2 °F 11.4 °F 1025.3 in SE 4.8 mph 16.1 mph 57 % 0.0 in
11:32 20.4 °F 11.3 °F 1025.3 in SW 1.6 mph 16.1 mph 56 % 0.0 in
11:37 20.7 °F 11.1 °F 1025.3 in NW 6.4 mph 9.7 mph 54 % 0.0 in
11:42 20.4 °F 10.8 °F 1025.3 in West 3.2 mph 8.0 mph 54 % 0.0 in
11:47 20.4 °F 10.8 °F 1025.3 in North 6.4 mph 14.5 mph 54 % 0.0 in
11:52 20.4 °F 10.8 °F 1025.3 in NE 1.6 mph 16.1 mph 54 % 0.0 in
11:57 20.4 °F 10.5 °F 1025.3 in NNE 3.2 mph 16.1 mph 53 % 0.0 in
12:02 20.4 °F 10.2 °F 1025.3 in NW 1.6 mph 16.1 mph 52 % 0.0 in
12:12 20.6 °F 10.7 °F 1025.3 in North 11.3 mph 14.5 mph 53 % 0.0 in
12:17 20.9 °F 10.7 °F 1024.9 in East 3.2 mph 14.5 mph 52 % 0.0 in
12:22 21.1 °F 10.9 °F 1025.3 in NNE 11.3 mph 14.5 mph 52 % 0.0 in
12:32 21.1 °F 10.9 °F 1024.9 in Calm   17.7 mph 52 % 0.0 in
12:42 21.2 °F 11.0 °F 1024.9 in SSE 3.2 mph 17.7 mph 52 % 0.0 in
12:52 21.3 °F 10.5 °F 1024.9 in NE 1.6 mph 12.9 mph 50 % 0.0 in
13:02 21.6 °F 10.1 °F 1025.3 in East 1.6 mph 20.9 mph 48 % 0.0 in
13:12 21.9 °F 10.7 °F 1025.3 in ENE 11.3 mph 16.1 mph 49 % 0.0 in
13:17 21.9 °F 10.7 °F 1025.3 in NNW 6.4 mph 17.7 mph 49 % 0.0 in
13:22 22.1 °F 11.2 °F 1025.3 in NNE 8.0 mph 17.7 mph 50 % 0.0 in
13:32 22.4 °F 11.2 °F 1024.9 in NE 8.0 mph 16.1 mph 49 % 0.0 in
13:37 22.4 °F 10.2 °F 1024.9 in NE 8.0 mph 19.3 mph 46 % 0.0 in
13:42 22.4 °F 10.5 °F 1024.9 in ENE 6.4 mph 19.3 mph 47 % 0.0 in
13:47 22.4 °F 10.8 °F 1024.9 in North 4.8 mph 19.3 mph 48 % 0.0 in
13:52 22.7 °F 10.8 °F 1024.9 in Calm   12.9 mph 47 % 0.0 in
13:57 22.9 °F 11.3 °F 1024.9 in North 3.2 mph 12.9 mph 48 % 0.0 in
14:02 23.2 °F 10.9 °F 1024.9 in NNE 1.6 mph 12.9 mph 46 % 0.0 in
14:07 23.2 °F 11.3 °F 1024.9 in NE 12.9 mph 12.9 mph 47 % 0.0 in
14:12 23.2 °F 11.3 °F 1024.6 in NNE 3.2 mph 20.9 mph 47 % 0.0 in
14:17 23.6 °F 11.3 °F 1024.6 in North 6.4 mph 20.9 mph 46 % 0.0 in
14:22 23.7 °F 11.4 °F 1024.6 in NNE 4.8 mph 20.9 mph 46 % 0.0 in
14:27 23.4 °F 10.5 °F 1024.6 in NNW 6.4 mph 22.5 mph 44 % 0.0 in
14:32 23.3 °F 11.0 °F 1024.6 in Calm   22.5 mph 46 % 0.0 in
14:37 23.4 °F 10.8 °F 1024.6 in Calm   22.5 mph 45 % 0.0 in
14:42 23.5 °F 10.9 °F 1024.6 in NNE 1.6 mph 17.7 mph 45 % 0.0 in
14:47 23.6 °F 11.0 °F 1024.6 in NE 11.3 mph 22.5 mph 45 % 0.0 in
14:52 23.5 °F 10.9 °F 1024.6 in SSW 3.2 mph 22.5 mph 45 % 0.0 in
15:02 23.6 °F 10.6 °F 1024.6 in ENE 4.8 mph 14.5 mph 44 % 0.0 in
15:07 23.7 °F 10.7 °F 1024.6 in East 3.2 mph 17.7 mph 44 % 0.0 in
15:12 23.2 °F 9.9 °F 1024.6 in NE 3.2 mph 17.7 mph 43 % 0.0 in
15:17 23.6 °F 11.0 °F 1024.6 in SW 3.2 mph 17.7 mph 45 % 0.0 in
15:22 24.1 °F 10.7 °F 1024.3 in ENE 8.0 mph 17.7 mph 43 % 0.0 in
15:27 24.1 °F 11.1 °F 1024.6 in NNW 3.2 mph 9.7 mph 44 % 0.0 in
15:32 24.1 °F 11.1 °F 1024.6 in NNW 1.6 mph 16.1 mph 44 % 0.0 in
15:37 24.1 °F 11.1 °F 1024.3 in North 14.5 mph 16.1 mph 44 % 0.0 in
15:42 24.2 °F 10.8 °F 1024.3 in Calm   20.9 mph 43 % 0.0 in
15:47 24.4 °F 10.7 °F 1024.3 in SW 4.8 mph 20.9 mph 42 % 0.0 in
15:57 24.6 °F 11.2 °F 1024.3 in NW 6.4 mph 8.0 mph 43 % 0.0 in
16:02 24.6 °F 10.8 °F 1024.3 in ENE 4.8 mph 14.5 mph 42 % 0.0 in
16:07 24.4 °F 11.4 °F 1024.3 in North 3.2 mph 14.5 mph 44 % 0.0 in
16:12 24.6 °F 11.5 °F 1024.3 in ENE 14.5 mph 14.5 mph 44 % 0.0 in
16:17 24.3 °F 11.3 °F 1024.3 in East 11.3 mph 16.1 mph 44 % 0.0 in
16:22 24.5 °F 11.4 °F 1024.3 in NE 11.3 mph 17.7 mph 44 % 0.0 in
16:27 24.6 °F 11.2 °F 1024.3 in NNE 12.9 mph 17.7 mph 43 % 0.0 in
16:32 24.4 °F 11.0 °F 1024.3 in NNW 8.0 mph 22.5 mph 43 % 0.0 in
16:37 24.6 °F 11.2 °F 1024.3 in WNW 1.6 mph 22.5 mph 43 % 0.0 in
16:42 24.9 °F 11.8 °F 1024.3 in ENE 4.8 mph 22.5 mph 44 % 0.0 in
16:47 24.9 °F 11.8 °F 1024.3 in ENE 6.4 mph 9.7 mph 44 % 0.0 in
16:52 24.9 °F 12.1 °F 1024.3 in NE 14.5 mph 14.5 mph 45 % 0.0 in
16:57 24.8 °F 12.1 °F 1024.3 in ENE 12.9 mph 14.5 mph 45 % 0.0 in
17:02 24.8 °F 11.7 °F 1024.3 in ESE 6.4 mph 16.1 mph 44 % 0.0 in
17:07 25.0 °F 11.9 °F 1024.3 in NNE 9.7 mph 19.3 mph 44 % 0.0 in
17:12 24.9 °F 11.8 °F 1024.3 in NE 14.5 mph 19.3 mph 44 % 0.0 in
17:17 24.6 °F 11.5 °F 1024.3 in ENE 9.7 mph 19.3 mph 44 % 0.0 in
17:22 24.6 °F 11.2 °F 1024.3 in ESE 3.2 mph 19.3 mph 43 % 0.0 in
17:27 24.4 °F 11.7 °F 1023.9 in ENE 4.8 mph 16.1 mph 45 % 0.0 in
17:32 24.8 °F 11.4 °F 1023.9 in NNE 9.7 mph 14.5 mph 43 % 0.0 in
17:37 24.9 °F 11.8 °F 1023.9 in East 6.4 mph 14.5 mph 44 % 0.0 in
17:42 25.2 °F 12.4 °F 1023.9 in NNW 6.4 mph 14.5 mph 45 % 0.0 in
17:47 25.2 °F 11.7 °F 1023.9 in Calm   16.1 mph 43 % 0.0 in
17:52 25.3 °F 11.8 °F 1023.9 in NE 8.0 mph 16.1 mph 43 % 0.0 in
17:57 25.0 °F 12.2 °F 1023.9 in NNE 17.7 mph 19.3 mph 45 % 0.0 in
18:02 25.1 °F 11.6 °F 1023.9 in ENE 8.0 mph 20.9 mph 43 % 0.0 in
18:07 25.2 °F 12.1 °F 1023.9 in NE 4.8 mph 20.9 mph 44 % 0.0 in
18:12 25.2 °F 11.7 °F 1023.9 in NNE 12.9 mph 20.9 mph 43 % 0.0 in
18:17 25.2 °F 12.1 °F 1023.9 in NNW 4.8 mph 20.9 mph 44 % 0.0 in
18:22 25.3 °F 11.5 °F 1023.9 in ENE 8.0 mph 16.1 mph 42 % 0.0 in
18:27 25.3 °F 11.8 °F 1023.9 in NNW 9.7 mph 16.1 mph 43 % 0.0 in
18:32 25.1 °F 11.6 °F 1023.9 in NNE 1.6 mph 16.1 mph 43 % 0.0 in
18:42 24.9 °F 11.8 °F 1023.9 in NNW 3.2 mph 16.1 mph 44 % 0.0 in
18:52 24.8 °F 11.7 °F 1023.9 in NW 8.0 mph 17.7 mph 44 % 0.0 in
18:57 24.7 °F 11.6 °F 1023.9 in North 8.0 mph 17.7 mph 44 % 0.0 in
19:02 24.6 °F 11.9 °F 1023.9 in NNW 6.4 mph 17.7 mph 45 % 0.0 in
19:07 24.8 °F 11.7 °F 1023.9 in ENE 4.8 mph 17.7 mph 44 % 0.0 in
19:12 24.8 °F 12.1 °F 1023.9 in NE 6.4 mph 17.7 mph 45 % 0.0 in
19:17 24.8 °F 12.1 °F 1023.9 in NNW 6.4 mph 12.9 mph 45 % 0.0 in
19:22 24.9 °F 12.1 °F 1023.9 in NNE 12.9 mph 14.5 mph 45 % 0.0 in
19:27 24.7 °F 11.6 °F 1024.3 in NNW 4.8 mph 19.3 mph 44 % 0.0 in
19:32 24.7 °F 12.0 °F 1023.9 in NW 1.6 mph 19.3 mph 45 % 0.0 in
19:42 24.6 °F 11.9 °F 1024.3 in NW 3.2 mph 14.5 mph 45 % 0.0 in
19:47 24.6 °F 11.9 °F 1023.9 in NNW 12.9 mph 14.5 mph 45 % 0.0 in
19:52 24.4 °F 11.7 °F 1023.9 in NE 8.0 mph 14.5 mph 45 % 0.0 in
20:02 24.2 °F 11.8 °F 1024.3 in NNE 4.8 mph 12.9 mph 46 % 0.0 in
20:07 24.3 °F 11.9 °F 1024.3 in NNW 4.8 mph 14.5 mph 46 % 0.0 in
20:12 24.3 °F 11.9 °F 1024.3 in NNW 4.8 mph 16.1 mph 46 % 0.0 in
20:17 24.3 °F 11.9 °F 1024.3 in NNE 4.8 mph 16.1 mph 46 % 0.0 in
20:22 24.3 °F 12.3 °F 1023.9 in NNE 3.2 mph 16.1 mph 47 % 0.0 in
20:27 24.1 °F 12.1 °F 1024.3 in NNE 3.2 mph 14.5 mph 47 % 0.0 in
20:32 23.9 °F 11.9 °F 1024.3 in WNW 3.2 mph 14.5 mph 47 % 0.0 in
20:37 23.9 °F 12.2 °F 1024.3 in ENE 4.8 mph 14.5 mph 48 % 0.0 in
20:42 23.8 °F 12.1 °F 1024.3 in NNE 8.0 mph 11.3 mph 48 % 0.0 in
20:47 23.8 °F 12.4 °F 1024.3 in North 8.0 mph 12.9 mph 49 % 0.0 in
20:52 23.7 °F 12.4 °F 1024.3 in NNW 3.2 mph 12.9 mph 49 % 0.0 in
20:57 23.4 °F 12.1 °F 1024.3 in NW 3.2 mph 12.9 mph 49 % 0.0 in
21:02 23.2 °F 12.2 °F 1024.3 in North 4.8 mph 11.3 mph 50 % 0.0 in
21:07 22.9 °F 11.9 °F 1024.3 in NNE 6.4 mph 11.3 mph 50 % 0.0 in
21:12 22.7 °F 12.0 °F 1024.3 in NE 3.2 mph 8.0 mph 51 % 0.0 in
21:17 22.5 °F 12.2 °F 1024.3 in NNE 3.2 mph 8.0 mph 52 % 0.0 in
21:22 22.3 °F 12.0 °F 1024.3 in North 4.8 mph 8.0 mph 52 % 0.0 in
21:27 22.2 °F 12.2 °F 1024.3 in NNW 3.2 mph 8.0 mph 53 % 0.0 in
21:32 21.9 °F 11.9 °F 1024.3 in NNW 3.2 mph 4.8 mph 53 % 0.0 in
21:37 21.8 °F 12.1 °F 1024.3 in WNW 1.6 mph 6.4 mph 54 % 0.0 in
21:42 21.6 °F 11.9 °F 1024.6 in Calm   6.4 mph 54 % 0.0 in
21:47 21.4 °F 12.0 °F 1024.6 in NNW 1.6 mph 6.4 mph 55 % 0.0 in
21:57 21.1 °F 11.7 °F 1024.6 in NNW 1.6 mph 4.8 mph 55 % 0.0 in
22:02 20.9 °F 11.8 °F 1024.6 in Calm   3.2 mph 56 % 0.0 in
22:07 20.7 °F 11.9 °F 1024.6 in Calm   3.2 mph 57 % 0.0 in
22:12 20.6 °F 11.8 °F 1024.6 in Calm   3.2 mph 57 % 0.0 in
22:17 20.3 °F 11.8 °F 1024.6 in North 1.6 mph 3.2 mph 58 % 0.0 in
22:22 19.9 °F 11.6 °F 1024.9 in North 1.6 mph 3.2 mph 59 % 0.0 in
22:27 19.9 °F 11.9 °F 1024.9 in NNW 1.6 mph 3.2 mph 60 % 0.0 in
22:32 19.9 °F 11.9 °F 1024.9 in NNW 1.6 mph 3.2 mph 60 % 0.0 in
22:37 19.8 °F 12.1 °F 1024.9 in Calm   3.2 mph 61 % 0.0 in
22:42 19.6 °F 12.1 °F 1024.9 in WNW 1.6 mph 1.6 mph 62 % 0.0 in
22:47 19.2 °F 12.0 °F 1024.9 in West 1.6 mph 3.2 mph 63 % 0.0 in
22:52 19.1 °F 11.9 °F 1024.9 in Calm   3.2 mph 63 % 0.0 in
22:57 18.9 °F 11.9 °F 1024.9 in Calm   3.2 mph 64 % 0.0 in
23:02 18.9 °F 11.9 °F 1024.9 in Calm   1.6 mph 64 % 0.0 in
23:07 18.8 °F 12.1 °F 1024.9 in Calm   1.6 mph 65 % 0.0 in
23:17 18.3 °F 12.1 °F 1024.9 in Calm   1.6 mph 67 % 0.0 in
23:22 18.4 °F 11.9 °F 1024.9 in Calm   1.6 mph 66 % 0.0 in
23:27 18.4 °F 11.9 °F 1024.9 in West 1.6 mph 1.6 mph 66 % 0.0 in
23:32 18.4 °F 11.9 °F 1024.9 in Calm   1.6 mph 66 % 0.0 in
23:37 18.4 °F 12.2 °F 1024.9 in Calm   1.6 mph 67 % 0.0 in
23:42 18.1 °F 12.1 °F 1024.9 in Calm   1.6 mph 68 % 0.0 in
23:47 17.8 °F 12.0 °F 1025.3 in Calm   1.6 mph 69 % 0.0 in
23:52 17.6 °F 12.5 °F 1025.3 in Calm   1.6 mph 72 % 0.0 in
23:57 17.5 °F 12.2 °F 1025.3 in Calm   1.6 mph 71 % 0.0 in
Meteo18
Compliments of Weather Underground - 4 mb

Script developed by  Jim McMurry - jmcmurry@mwt.net Adapted for the template by  Wim van der Kuil - Leuven-Template.eu

You find our weather info also at:

European Weather Network

Weather Underground

Equipment we use:

Weather-station
Davis Vue

Weather-program
Meteobridge

Weather-server
Raspberry PI 2 B+

Provider
1 and 1

Davis Vue

Meteobridge

Raspberry PI 2 B+

1 and 1